sensor_id;sensor_type;location;lat;lon;timestamp;temperature;humidity
11035;DHT22;5571;48.110;-1.706;2024-01-25T00:00:41;12.50;99.90
11035;DHT22;5571;48.110;-1.706;2024-01-25T00:03:07;12.50;99.90
11035;DHT22;5571;48.110;-1.706;2024-01-25T00:05:32;12.50;99.90
11035;DHT22;5571;48.110;-1.706;2024-01-25T00:07:58;12.50;99.90
11035;DHT22;5571;48.110;-1.706;2024-01-25T00:10:24;12.50;99.90
11035;DHT22;5571;48.110;-1.706;2024-01-25T00:12:49;12.50;99.90
11035;DHT22;5571;48.110;-1.706;2024-01-25T00:15:15;12.50;99.90
11035;DHT22;5571;48.110;-1.706;2024-01-25T00:17:41;12.50;99.90
11035;DHT22;5571;48.110;-1.706;2024-01-25T00:20:09;12.50;99.90
11035;DHT22;5571;48.110;-1.706;2024-01-25T00:22:36;12.40;99.90
11035;DHT22;5571;48.110;-1.706;2024-01-25T00:25:03;12.40;99.90
11035;DHT22;5571;48.110;-1.706;2024-01-25T00:27:29;12.50;99.90
11035;DHT22;5571;48.110;-1.706;2024-01-25T00:29:54;12.40;99.90
11035;DHT22;5571;48.110;-1.706;2024-01-25T00:32:20;12.40;99.90
11035;DHT22;5571;48.110;-1.706;2024-01-25T00:39:37;12.40;99.90
11035;DHT22;5571;48.110;-1.706;2024-01-25T00:42:04;12.40;99.90
11035;DHT22;5571;48.110;-1.706;2024-01-25T00:44:31;12.30;99.90
11035;DHT22;5571;48.110;-1.706;2024-01-25T00:46:57;12.40;99.90
11035;DHT22;5571;48.110;-1.706;2024-01-25T00:49:22;12.40;99.90
11035;DHT22;5571;48.110;-1.706;2024-01-25T00:51:48;12.40;99.90
11035;DHT22;5571;48.110;-1.706;2024-01-25T00:54:15;12.40;99.90
11035;DHT22;5571;48.110;-1.706;2024-01-25T00:56:41;12.30;99.90
11035;DHT22;5571;48.110;-1.706;2024-01-25T00:59:07;12.40;99.90
11035;DHT22;5571;48.110;-1.706;2024-01-25T01:01:33;12.40;99.90
11035;DHT22;5571;48.110;-1.706;2024-01-25T01:03:59;12.30;99.90
11035;DHT22;5571;48.110;-1.706;2024-01-25T01:06:26;12.40;99.90
11035;DHT22;5571;48.110;-1.706;2024-01-25T01:08:52;12.40;99.90
11035;DHT22;5571;48.110;-1.706;2024-01-25T01:11:18;12.30;99.90
11035;DHT22;5571;48.110;-1.706;2024-01-25T01:13:44;12.30;99.90
11035;DHT22;5571;48.110;-1.706;2024-01-25T01:16:09;12.30;99.90
11035;DHT22;5571;48.110;-1.706;2024-01-25T01:18:35;12.30;99.90
11035;DHT22;5571;48.110;-1.706;2024-01-25T01:21:01;12.30;99.90
11035;DHT22;5571;48.110;-1.706;2024-01-25T01:23:26;12.30;99.90
11035;DHT22;5571;48.110;-1.706;2024-01-25T01:25:52;12.30;99.90
11035;DHT22;5571;48.110;-1.706;2024-01-25T01:28:18;12.20;99.90
11035;DHT22;5571;48.110;-1.706;2024-01-25T01:30:43;12.30;99.90
11035;DHT22;5571;48.110;-1.706;2024-01-25T01:33:11;12.30;99.90
11035;DHT22;5571;48.110;-1.706;2024-01-25T01:35:36;12.20;99.90
11035;DHT22;5571;48.110;-1.706;2024-01-25T01:38:02;12.20;99.90
11035;DHT22;5571;48.110;-1.706;2024-01-25T01:40:27;12.20;99.90
11035;DHT22;5571;48.110;-1.706;2024-01-25T01:43:02;12.20;99.90
11035;DHT22;5571;48.110;-1.706;2024-01-25T01:45:28;12.20;99.90
11035;DHT22;5571;48.110;-1.706;2024-01-25T01:47:57;12.30;99.90
11035;DHT22;5571;48.110;-1.706;2024-01-25T01:50:23;12.20;99.90
11035;DHT22;5571;48.110;-1.706;2024-01-25T01:52:50;12.30;99.90
11035;DHT22;5571;48.110;-1.706;2024-01-25T01:55:17;12.20;99.90
11035;DHT22;5571;48.110;-1.706;2024-01-25T01:57:43;12.20;99.90
11035;DHT22;5571;48.110;-1.706;2024-01-25T02:00:10;12.20;99.90
11035;DHT22;5571;48.110;-1.706;2024-01-25T02:02:35;12.20;99.90
11035;DHT22;5571;48.110;-1.706;2024-01-25T02:05:01;12.20;99.90
11035;DHT22;5571;48.110;-1.706;2024-01-25T02:07:27;12.20;99.90
11035;DHT22;5571;48.110;-1.706;2024-01-25T02:09:53;12.20;99.90
11035;DHT22;5571;48.110;-1.706;2024-01-25T02:12:19;12.20;99.90
11035;DHT22;5571;48.110;-1.706;2024-01-25T02:14:46;12.20;99.90
11035;DHT22;5571;48.110;-1.706;2024-01-25T02:17:11;12.20;99.90
11035;DHT22;5571;48.110;-1.706;2024-01-25T02:19:37;12.20;99.90
11035;DHT22;5571;48.110;-1.706;2024-01-25T02:22:05;12.20;99.90
11035;DHT22;5571;48.110;-1.706;2024-01-25T02:24:31;12.20;99.90
11035;DHT22;5571;48.110;-1.706;2024-01-25T02:26:56;12.20;99.90
11035;DHT22;5571;48.110;-1.706;2024-01-25T02:29:23;12.20;99.90
11035;DHT22;5571;48.110;-1.706;2024-01-25T02:31:49;12.20;99.90
11035;DHT22;5571;48.110;-1.706;2024-01-25T02:34:14;12.20;99.90
11035;DHT22;5571;48.110;-1.706;2024-01-25T02:36:40;12.20;99.90
11035;DHT22;5571;48.110;-1.706;2024-01-25T02:39:06;12.20;99.90
11035;DHT22;5571;48.110;-1.706;2024-01-25T02:41:32;12.20;99.90
11035;DHT22;5571;48.110;-1.706;2024-01-25T02:43:59;12.20;99.90
11035;DHT22;5571;48.110;-1.706;2024-01-25T02:46:25;12.20;99.90
11035;DHT22;5571;48.110;-1.706;2024-01-25T02:48:50;12.20;99.90
11035;DHT22;5571;48.110;-1.706;2024-01-25T02:51:16;12.20;99.90
11035;DHT22;5571;48.110;-1.706;2024-01-25T02:53:41;12.20;99.90
11035;DHT22;5571;48.110;-1.706;2024-01-25T02:56:07;12.20;99.90
11035;DHT22;5571;48.110;-1.706;2024-01-25T02:58:33;12.20;99.90
11035;DHT22;5571;48.110;-1.706;2024-01-25T03:00:58;12.20;99.90
11035;DHT22;5571;48.110;-1.706;2024-01-25T03:03:24;12.10;99.90
11035;DHT22;5571;48.110;-1.706;2024-01-25T03:05:51;12.10;99.90
11035;DHT22;5571;48.110;-1.706;2024-01-25T03:08:17;12.10;99.90
11035;DHT22;5571;48.110;-1.706;2024-01-25T03:10:42;12.10;99.90
11035;DHT22;5571;48.110;-1.706;2024-01-25T03:13:08;12.10;99.90
11035;DHT22;5571;48.110;-1.706;2024-01-25T03:15:34;12.10;99.90
11035;DHT22;5571;48.110;-1.706;2024-01-25T03:17:59;12.10;99.90
11035;DHT22;5571;48.110;-1.706;2024-01-25T03:20:25;12.00;99.90
11035;DHT22;5571;48.110;-1.706;2024-01-25T03:22:50;12.00;99.90
11035;DHT22;5571;48.110;-1.706;2024-01-25T03:25:16;12.00;99.90
11035;DHT22;5571;48.110;-1.706;2024-01-25T03:27:42;12.10;99.90
11035;DHT22;5571;48.110;-1.706;2024-01-25T03:30:08;12.00;99.90
11035;DHT22;5571;48.110;-1.706;2024-01-25T03:32:34;12.00;99.90
11035;DHT22;5571;48.110;-1.706;2024-01-25T03:34:59;12.00;99.90
11035;DHT22;5571;48.110;-1.706;2024-01-25T03:37:25;12.00;99.90
11035;DHT22;5571;48.110;-1.706;2024-01-25T03:39:51;12.00;99.90
11035;DHT22;5571;48.110;-1.706;2024-01-25T03:42:16;12.00;99.90
11035;DHT22;5571;48.110;-1.706;2024-01-25T03:44:42;12.00;99.90
11035;DHT22;5571;48.110;-1.706;2024-01-25T03:47:10;12.00;99.90
11035;DHT22;5571;48.110;-1.706;2024-01-25T03:49:36;11.90;99.90
11035;DHT22;5571;48.110;-1.706;2024-01-25T03:52:01;11.90;99.90
11035;DHT22;5571;48.110;-1.706;2024-01-25T03:54:28;11.90;99.90
11035;DHT22;5571;48.110;-1.706;2024-01-25T03:56:53;11.90;99.90
11035;DHT22;5571;48.110;-1.706;2024-01-25T03:59:19;11.90;99.90
11035;DHT22;5571;48.110;-1.706;2024-01-25T04:01:44;11.90;99.90
11035;DHT22;5571;48.110;-1.706;2024-01-25T04:04:14;11.90;99.90
11035;DHT22;5571;48.110;-1.706;2024-01-25T04:06:43;11.80;99.90
11035;DHT22;5571;48.110;-1.706;2024-01-25T04:09:10;11.80;99.90
11035;DHT22;5571;48.110;-1.706;2024-01-25T04:11:37;11.80;99.90
11035;DHT22;5571;48.110;-1.706;2024-01-25T04:14:03;11.80;99.90
11035;DHT22;5571;48.110;-1.706;2024-01-25T04:16:29;11.80;99.90
11035;DHT22;5571;48.110;-1.706;2024-01-25T04:18:54;11.80;99.90
11035;DHT22;5571;48.110;-1.706;2024-01-25T04:21:20;11.80;99.90
11035;DHT22;5571;48.110;-1.706;2024-01-25T04:23:46;11.80;99.90
11035;DHT22;5571;48.110;-1.706;2024-01-25T04:26:11;11.80;99.90
11035;DHT22;5571;48.110;-1.706;2024-01-25T04:28:37;11.70;99.90
11035;DHT22;5571;48.110;-1.706;2024-01-25T04:31:03;11.70;99.90
11035;DHT22;5571;48.110;-1.706;2024-01-25T04:33:29;11.70;99.90
11035;DHT22;5571;48.110;-1.706;2024-01-25T04:35:55;11.70;99.90
11035;DHT22;5571;48.110;-1.706;2024-01-25T04:38:21;11.70;99.90
11035;DHT22;5571;48.110;-1.706;2024-01-25T04:40:47;11.70;99.90
11035;DHT22;5571;48.110;-1.706;2024-01-25T04:43:13;11.70;99.90
11035;DHT22;5571;48.110;-1.706;2024-01-25T04:45:39;11.70;99.90
11035;DHT22;5571;48.110;-1.706;2024-01-25T04:48:05;11.60;99.90
11035;DHT22;5571;48.110;-1.706;2024-01-25T04:50:31;11.60;99.90
11035;DHT22;5571;48.110;-1.706;2024-01-25T04:52:57;11.60;99.90
11035;DHT22;5571;48.110;-1.706;2024-01-25T04:55:22;11.60;99.90
11035;DHT22;5571;48.110;-1.706;2024-01-25T04:57:48;11.60;99.90
11035;DHT22;5571;48.110;-1.706;2024-01-25T05:00:17;11.60;99.90
11035;DHT22;5571;48.110;-1.706;2024-01-25T05:02:42;11.50;99.90
11035;DHT22;5571;48.110;-1.706;2024-01-25T05:05:08;11.50;99.90
11035;DHT22;5571;48.110;-1.706;2024-01-25T05:07:34;11.50;99.90
11035;DHT22;5571;48.110;-1.706;2024-01-25T05:09:59;11.50;99.90
11035;DHT22;5571;48.110;-1.706;2024-01-25T05:12:25;11.50;99.90
11035;DHT22;5571;48.110;-1.706;2024-01-25T05:14:50;11.50;99.90
11035;DHT22;5571;48.110;-1.706;2024-01-25T05:17:16;11.40;99.90
11035;DHT22;5571;48.110;-1.706;2024-01-25T05:19:41;11.50;99.90
11035;DHT22;5571;48.110;-1.706;2024-01-25T05:22:07;11.50;99.90
11035;DHT22;5571;48.110;-1.706;2024-01-25T05:24:33;11.50;99.90
11035;DHT22;5571;48.110;-1.706;2024-01-25T05:26:59;11.50;99.90
11035;DHT22;5571;48.110;-1.706;2024-01-25T05:29:25;11.50;99.90
11035;DHT22;5571;48.110;-1.706;2024-01-25T05:31:51;11.60;99.90
11035;DHT22;5571;48.110;-1.706;2024-01-25T05:34:16;11.60;99.90
11035;DHT22;5571;48.110;-1.706;2024-01-25T05:36:42;11.60;99.90
11035;DHT22;5571;48.110;-1.706;2024-01-25T05:39:07;11.60;99.90
11035;DHT22;5571;48.110;-1.706;2024-01-25T05:41:33;11.60;99.90
11035;DHT22;5571;48.110;-1.706;2024-01-25T05:43:59;11.60;99.90
11035;DHT22;5571;48.110;-1.706;2024-01-25T05:46:25;11.60;99.90
11035;DHT22;5571;48.110;-1.706;2024-01-25T05:48:51;11.60;99.90
11035;DHT22;5571;48.110;-1.706;2024-01-25T05:51:17;11.60;99.90
11035;DHT22;5571;48.110;-1.706;2024-01-25T05:53:43;11.70;99.90
11035;DHT22;5571;48.110;-1.706;2024-01-25T05:56:08;11.60;99.90
11035;DHT22;5571;48.110;-1.706;2024-01-25T05:58:34;11.60;99.90
11035;DHT22;5571;48.110;-1.706;2024-01-25T06:01:00;11.60;99.90
11035;DHT22;5571;48.110;-1.706;2024-01-25T06:03:25;11.60;99.90
11035;DHT22;5571;48.110;-1.706;2024-01-25T06:05:51;11.60;99.90
11035;DHT22;5571;48.110;-1.706;2024-01-25T06:08:16;11.60;99.90
11035;DHT22;5571;48.110;-1.706;2024-01-25T06:10:42;11.60;99.90
11035;DHT22;5571;48.110;-1.706;2024-01-25T06:13:08;11.60;99.90
11035;DHT22;5571;48.110;-1.706;2024-01-25T06:15:34;11.60;99.90
11035;DHT22;5571;48.110;-1.706;2024-01-25T06:18:00;11.50;99.90
11035;DHT22;5571;48.110;-1.706;2024-01-25T06:20:25;11.50;99.90
11035;DHT22;5571;48.110;-1.706;2024-01-25T06:22:51;11.50;99.90
11035;DHT22;5571;48.110;-1.706;2024-01-25T06:25:17;11.40;99.90
11035;DHT22;5571;48.110;-1.706;2024-01-25T06:27:42;11.40;99.90
11035;DHT22;5571;48.110;-1.706;2024-01-25T06:30:09;11.40;99.90
11035;DHT22;5571;48.110;-1.706;2024-01-25T06:32:34;11.30;99.90
11035;DHT22;5571;48.110;-1.706;2024-01-25T06:35:00;11.40;99.90
11035;DHT22;5571;48.110;-1.706;2024-01-25T06:37:26;11.40;99.90
11035;DHT22;5571;48.110;-1.706;2024-01-25T06:39:53;11.40;99.90
11035;DHT22;5571;48.110;-1.706;2024-01-25T06:42:18;11.30;99.90
11035;DHT22;5571;48.110;-1.706;2024-01-25T06:44:44;11.40;99.90
11035;DHT22;5571;48.110;-1.706;2024-01-25T06:47:10;11.40;99.90
11035;DHT22;5571;48.110;-1.706;2024-01-25T06:49:35;11.40;99.90
11035;DHT22;5571;48.110;-1.706;2024-01-25T06:52:01;11.40;99.90
11035;DHT22;5571;48.110;-1.706;2024-01-25T06:54:27;11.40;99.90
11035;DHT22;5571;48.110;-1.706;2024-01-25T06:56:52;11.40;99.90
11035;DHT22;5571;48.110;-1.706;2024-01-25T06:59:18;11.30;99.90
11035;DHT22;5571;48.110;-1.706;2024-01-25T07:01:43;11.30;99.90
11035;DHT22;5571;48.110;-1.706;2024-01-25T07:04:09;11.30;99.90
11035;DHT22;5571;48.110;-1.706;2024-01-25T07:06:35;11.30;99.90
11035;DHT22;5571;48.110;-1.706;2024-01-25T07:09:00;11.30;99.90
11035;DHT22;5571;48.110;-1.706;2024-01-25T07:11:26;11.40;99.90
11035;DHT22;5571;48.110;-1.706;2024-01-25T07:13:51;11.40;99.90
11035;DHT22;5571;48.110;-1.706;2024-01-25T07:16:17;11.40;99.90
11035;DHT22;5571;48.110;-1.706;2024-01-25T07:18:44;11.40;99.90
11035;DHT22;5571;48.110;-1.706;2024-01-25T07:21:10;11.40;99.90
11035;DHT22;5571;48.110;-1.706;2024-01-25T07:23:36;11.40;99.90
11035;DHT22;5571;48.110;-1.706;2024-01-25T07:26:01;11.40;99.90
11035;DHT22;5571;48.110;-1.706;2024-01-25T07:28:27;11.40;99.90
11035;DHT22;5571;48.110;-1.706;2024-01-25T07:30:53;11.50;99.90
11035;DHT22;5571;48.110;-1.706;2024-01-25T07:33:18;11.50;99.90
11035;DHT22;5571;48.110;-1.706;2024-01-25T07:35:44;11.40;99.90
11035;DHT22;5571;48.110;-1.706;2024-01-25T07:38:14;11.40;99.90
11035;DHT22;5571;48.110;-1.706;2024-01-25T07:40:40;11.40;99.90
11035;DHT22;5571;48.110;-1.706;2024-01-25T07:43:05;11.40;99.90
11035;DHT22;5571;48.110;-1.706;2024-01-25T07:45:31;11.40;99.90
11035;DHT22;5571;48.110;-1.706;2024-01-25T07:47:57;11.40;99.90
11035;DHT22;5571;48.110;-1.706;2024-01-25T07:50:23;11.40;99.90
11035;DHT22;5571;48.110;-1.706;2024-01-25T07:52:49;11.40;99.90
11035;DHT22;5571;48.110;-1.706;2024-01-25T07:55:16;11.30;99.90
11035;DHT22;5571;48.110;-1.706;2024-01-25T07:57:41;11.30;99.90
11035;DHT22;5571;48.110;-1.706;2024-01-25T08:00:07;11.30;99.90
11035;DHT22;5571;48.110;-1.706;2024-01-25T08:02:35;11.30;99.90
11035;DHT22;5571;48.110;-1.706;2024-01-25T08:05:01;11.30;99.90
11035;DHT22;5571;48.110;-1.706;2024-01-25T08:07:26;11.30;99.90
11035;DHT22;5571;48.110;-1.706;2024-01-25T08:09:52;11.40;99.90
11035;DHT22;5571;48.110;-1.706;2024-01-25T08:12:18;11.40;99.90
11035;DHT22;5571;48.110;-1.706;2024-01-25T08:14:44;11.40;99.90
11035;DHT22;5571;48.110;-1.706;2024-01-25T08:17:10;11.40;99.90
11035;DHT22;5571;48.110;-1.706;2024-01-25T08:19:35;11.40;99.90
11035;DHT22;5571;48.110;-1.706;2024-01-25T08:22:01;11.40;99.90
11035;DHT22;5571;48.110;-1.706;2024-01-25T08:24:27;11.40;99.90
11035;DHT22;5571;48.110;-1.706;2024-01-25T08:26:53;11.40;99.90
11035;DHT22;5571;48.110;-1.706;2024-01-25T08:29:18;11.40;99.90
11035;DHT22;5571;48.110;-1.706;2024-01-25T08:31:44;11.50;99.90
11035;DHT22;5571;48.110;-1.706;2024-01-25T08:34:11;11.40;99.90
11035;DHT22;5571;48.110;-1.706;2024-01-25T08:36:37;11.50;99.90
11035;DHT22;5571;48.110;-1.706;2024-01-25T08:39:02;11.50;99.90
11035;DHT22;5571;48.110;-1.706;2024-01-25T08:41:29;11.60;99.90
11035;DHT22;5571;48.110;-1.706;2024-01-25T08:43:55;11.60;99.90
11035;DHT22;5571;48.110;-1.706;2024-01-25T08:46:20;11.50;99.90
11035;DHT22;5571;48.110;-1.706;2024-01-25T08:48:46;11.50;99.90
11035;DHT22;5571;48.110;-1.706;2024-01-25T08:51:11;11.60;99.90
11035;DHT22;5571;48.110;-1.706;2024-01-25T08:53:37;11.60;99.90
11035;DHT22;5571;48.110;-1.706;2024-01-25T08:56:03;11.60;99.90
11035;DHT22;5571;48.110;-1.706;2024-01-25T08:58:30;11.60;99.90
11035;DHT22;5571;48.110;-1.706;2024-01-25T09:00:55;11.60;99.90
11035;DHT22;5571;48.110;-1.706;2024-01-25T09:03:21;11.60;99.90
11035;DHT22;5571;48.110;-1.706;2024-01-25T09:05:48;11.60;99.90
11035;DHT22;5571;48.110;-1.706;2024-01-25T09:08:14;11.70;99.90
11035;DHT22;5571;48.110;-1.706;2024-01-25T09:10:40;11.70;99.90
11035;DHT22;5571;48.110;-1.706;2024-01-25T09:13:07;11.60;99.90
11035;DHT22;5571;48.110;-1.706;2024-01-25T09:15:32;11.60;99.90
11035;DHT22;5571;48.110;-1.706;2024-01-25T09:17:58;11.60;99.90
11035;DHT22;5571;48.110;-1.706;2024-01-25T09:20:23;11.60;99.90
11035;DHT22;5571;48.110;-1.706;2024-01-25T09:22:49;11.70;99.90
11035;DHT22;5571;48.110;-1.706;2024-01-25T09:25:15;11.70;99.90
11035;DHT22;5571;48.110;-1.706;2024-01-25T09:27:41;11.60;99.90
11035;DHT22;5571;48.110;-1.706;2024-01-25T09:30:07;11.70;99.90
11035;DHT22;5571;48.110;-1.706;2024-01-25T09:32:32;11.70;99.90
11035;DHT22;5571;48.110;-1.706;2024-01-25T09:34:58;11.70;99.90
11035;DHT22;5571;48.110;-1.706;2024-01-25T09:37:24;11.80;99.90
11035;DHT22;5571;48.110;-1.706;2024-01-25T09:39:50;11.80;99.90
11035;DHT22;5571;48.110;-1.706;2024-01-25T09:42:17;11.70;99.90
11035;DHT22;5571;48.110;-1.706;2024-01-25T09:44:44;11.80;99.90
11035;DHT22;5571;48.110;-1.706;2024-01-25T09:47:10;11.80;99.90
11035;DHT22;5571;48.110;-1.706;2024-01-25T09:49:35;11.80;99.90
11035;DHT22;5571;48.110;-1.706;2024-01-25T09:52:02;11.80;99.90
11035;DHT22;5571;48.110;-1.706;2024-01-25T09:54:35;11.80;99.90
11035;DHT22;5571;48.110;-1.706;2024-01-25T09:57:06;11.80;99.90
11035;DHT22;5571;48.110;-1.706;2024-01-25T09:59:32;11.80;99.90
11035;DHT22;5571;48.110;-1.706;2024-01-25T10:01:58;11.80;99.90
11035;DHT22;5571;48.110;-1.706;2024-01-25T10:04:24;11.80;99.90
11035;DHT22;5571;48.110;-1.706;2024-01-25T10:06:50;11.90;99.90
11035;DHT22;5571;48.110;-1.706;2024-01-25T10:09:16;12.00;99.90
11035;DHT22;5571;48.110;-1.706;2024-01-25T10:11:42;12.00;99.90
11035;DHT22;5571;48.110;-1.706;2024-01-25T10:14:08;12.00;99.90
11035;DHT22;5571;48.110;-1.706;2024-01-25T10:16:34;12.00;99.90
11035;DHT22;5571;48.110;-1.706;2024-01-25T10:19:01;12.10;99.90
11035;DHT22;5571;48.110;-1.706;2024-01-25T10:21:28;12.00;99.90
11035;DHT22;5571;48.110;-1.706;2024-01-25T10:23:54;12.00;99.90
11035;DHT22;5571;48.110;-1.706;2024-01-25T10:26:26;12.10;99.90
11035;DHT22;5571;48.110;-1.706;2024-01-25T10:28:54;12.10;99.90
11035;DHT22;5571;48.110;-1.706;2024-01-25T10:31:23;12.20;99.90
11035;DHT22;5571;48.110;-1.706;2024-01-25T10:33:48;12.20;99.90
11035;DHT22;5571;48.110;-1.706;2024-01-25T10:36:15;12.30;99.90
11035;DHT22;5571;48.110;-1.706;2024-01-25T10:38:42;12.30;99.90
11035;DHT22;5571;48.110;-1.706;2024-01-25T10:41:09;12.30;99.90
11035;DHT22;5571;48.110;-1.706;2024-01-25T10:43:35;12.20;99.90
11035;DHT22;5571;48.110;-1.706;2024-01-25T10:46:01;12.30;99.90
11035;DHT22;5571;48.110;-1.706;2024-01-25T10:48:30;12.30;99.90
11035;DHT22;5571;48.110;-1.706;2024-01-25T10:50:56;12.20;99.90
11035;DHT22;5571;48.110;-1.706;2024-01-25T10:53:24;12.20;99.90
11035;DHT22;5571;48.110;-1.706;2024-01-25T10:55:50;12.30;99.90
11035;DHT22;5571;48.110;-1.706;2024-01-25T10:58:16;12.30;99.90
11035;DHT22;5571;48.110;-1.706;2024-01-25T11:00:51;12.20;99.90
11035;DHT22;5571;48.110;-1.706;2024-01-25T11:03:18;12.20;99.90
11035;DHT22;5571;48.110;-1.706;2024-01-25T11:05:46;12.30;99.90
11035;DHT22;5571;48.110;-1.706;2024-01-25T11:08:19;12.20;99.90
11035;DHT22;5571;48.110;-1.706;2024-01-25T11:10:51;12.20;99.90
11035;DHT22;5571;48.110;-1.706;2024-01-25T11:13:23;12.20;99.90
11035;DHT22;5571;48.110;-1.706;2024-01-25T11:15:49;12.20;99.90
11035;DHT22;5571;48.110;-1.706;2024-01-25T11:18:15;12.30;99.90
11035;DHT22;5571;48.110;-1.706;2024-01-25T11:20:41;12.30;99.90
11035;DHT22;5571;48.110;-1.706;2024-01-25T11:23:07;12.30;99.90
11035;DHT22;5571;48.110;-1.706;2024-01-25T11:25:37;12.30;99.90
11035;DHT22;5571;48.110;-1.706;2024-01-25T11:28:04;12.30;99.90
11035;DHT22;5571;48.110;-1.706;2024-01-25T11:30:32;12.40;99.90
11035;DHT22;5571;48.110;-1.706;2024-01-25T11:32:59;12.40;99.90
11035;DHT22;5571;48.110;-1.706;2024-01-25T11:35:24;12.50;99.90
11035;DHT22;5571;48.110;-1.706;2024-01-25T11:37:50;12.50;99.90
11035;DHT22;5571;48.110;-1.706;2024-01-25T11:40:20;12.50;99.90
11035;DHT22;5571;48.110;-1.706;2024-01-25T11:42:50;12.50;99.90
11035;DHT22;5571;48.110;-1.706;2024-01-25T11:45:16;12.50;99.90
11035;DHT22;5571;48.110;-1.706;2024-01-25T11:47:43;12.50;99.90
11035;DHT22;5571;48.110;-1.706;2024-01-25T11:50:11;12.60;99.90
11035;DHT22;5571;48.110;-1.706;2024-01-25T11:52:37;12.50;99.90
11035;DHT22;5571;48.110;-1.706;2024-01-25T11:55:04;12.50;99.90
11035;DHT22;5571;48.110;-1.706;2024-01-25T11:57:36;12.60;99.90
11035;DHT22;5571;48.110;-1.706;2024-01-25T12:00:07;12.60;99.90
11035;DHT22;5571;48.110;-1.706;2024-01-25T12:02:35;12.60;99.90
11035;DHT22;5571;48.110;-1.706;2024-01-25T12:05:02;12.60;99.90
11035;DHT22;5571;48.110;-1.706;2024-01-25T12:07:30;12.60;99.90
11035;DHT22;5571;48.110;-1.706;2024-01-25T12:10:02;12.50;99.90
11035;DHT22;5571;48.110;-1.706;2024-01-25T12:12:28;12.50;99.90
11035;DHT22;5571;48.110;-1.706;2024-01-25T12:14:58;12.50;99.90
11035;DHT22;5571;48.110;-1.706;2024-01-25T12:17:26;12.60;99.90
11035;DHT22;5571;48.110;-1.706;2024-01-25T12:19:55;12.50;99.90
11035;DHT22;5571;48.110;-1.706;2024-01-25T12:22:21;12.50;99.90
11035;DHT22;5571;48.110;-1.706;2024-01-25T12:24:47;12.60;99.90
11035;DHT22;5571;48.110;-1.706;2024-01-25T12:27:15;12.60;99.90
11035;DHT22;5571;48.110;-1.706;2024-01-25T12:29:41;12.60;99.90
11035;DHT22;5571;48.110;-1.706;2024-01-25T12:32:09;12.60;99.90
11035;DHT22;5571;48.110;-1.706;2024-01-25T12:34:34;12.60;99.90
11035;DHT22;5571;48.110;-1.706;2024-01-25T12:37:00;12.60;99.90
11035;DHT22;5571;48.110;-1.706;2024-01-25T12:39:25;12.60;99.90
11035;DHT22;5571;48.110;-1.706;2024-01-25T12:41:51;12.70;99.90
11035;DHT22;5571;48.110;-1.706;2024-01-25T12:44:17;12.70;99.90
11035;DHT22;5571;48.110;-1.706;2024-01-25T12:46:42;12.70;99.90
11035;DHT22;5571;48.110;-1.706;2024-01-25T12:49:08;12.70;99.90
11035;DHT22;5571;48.110;-1.706;2024-01-25T12:51:34;12.70;99.90
11035;DHT22;5571;48.110;-1.706;2024-01-25T12:53:59;12.80;99.90
11035;DHT22;5571;48.110;-1.706;2024-01-25T12:56:25;12.70;99.90
11035;DHT22;5571;48.110;-1.706;2024-01-25T12:58:50;12.80;99.90
11035;DHT22;5571;48.110;-1.706;2024-01-25T13:01:16;12.90;99.90
11035;DHT22;5571;48.110;-1.706;2024-01-25T13:03:42;12.90;99.90
11035;DHT22;5571;48.110;-1.706;2024-01-25T13:06:07;12.90;99.90
11035;DHT22;5571;48.110;-1.706;2024-01-25T13:08:33;12.90;99.90
11035;DHT22;5571;48.110;-1.706;2024-01-25T13:10:59;12.90;99.90
11035;DHT22;5571;48.110;-1.706;2024-01-25T13:13:24;12.90;99.90
11035;DHT22;5571;48.110;-1.706;2024-01-25T13:15:51;13.00;99.90
11035;DHT22;5571;48.110;-1.706;2024-01-25T13:18:16;13.00;99.90
11035;DHT22;5571;48.110;-1.706;2024-01-25T13:20:42;13.00;99.90
11035;DHT22;5571;48.110;-1.706;2024-01-25T13:23:07;13.00;99.90
11035;DHT22;5571;48.110;-1.706;2024-01-25T13:25:33;13.00;99.90
11035;DHT22;5571;48.110;-1.706;2024-01-25T13:27:59;13.00;99.90
11035;DHT22;5571;48.110;-1.706;2024-01-25T13:30:24;13.10;99.90
11035;DHT22;5571;48.110;-1.706;2024-01-25T13:32:50;13.10;99.90
11035;DHT22;5571;48.110;-1.706;2024-01-25T13:35:15;13.10;99.90
11035;DHT22;5571;48.110;-1.706;2024-01-25T13:37:41;13.10;99.90
11035;DHT22;5571;48.110;-1.706;2024-01-25T13:40:07;13.20;99.90
11035;DHT22;5571;48.110;-1.706;2024-01-25T13:42:33;13.20;99.90
11035;DHT22;5571;48.110;-1.706;2024-01-25T13:44:58;13.20;99.90
11035;DHT22;5571;48.110;-1.706;2024-01-25T13:47:24;13.30;99.90
11035;DHT22;5571;48.110;-1.706;2024-01-25T13:49:50;13.30;99.90
11035;DHT22;5571;48.110;-1.706;2024-01-25T13:52:17;13.30;99.90
11035;DHT22;5571;48.110;-1.706;2024-01-25T13:54:45;13.30;99.90
11035;DHT22;5571;48.110;-1.706;2024-01-25T13:57:11;13.30;99.90
11035;DHT22;5571;48.110;-1.706;2024-01-25T13:59:36;13.30;99.90
11035;DHT22;5571;48.110;-1.706;2024-01-25T14:02:02;13.30;99.90
11035;DHT22;5571;48.110;-1.706;2024-01-25T14:04:28;13.30;99.90
11035;DHT22;5571;48.110;-1.706;2024-01-25T14:06:53;13.40;99.90
11035;DHT22;5571;48.110;-1.706;2024-01-25T14:09:19;13.40;99.90
11035;DHT22;5571;48.110;-1.706;2024-01-25T14:11:44;13.50;99.90
11035;DHT22;5571;48.110;-1.706;2024-01-25T14:14:10;13.50;99.90
11035;DHT22;5571;48.110;-1.706;2024-01-25T14:16:36;13.50;99.90
11035;DHT22;5571;48.110;-1.706;2024-01-25T14:19:01;13.70;99.90
11035;DHT22;5571;48.110;-1.706;2024-01-25T14:21:29;13.80;99.90
11035;DHT22;5571;48.110;-1.706;2024-01-25T14:23:55;13.80;99.90
11035;DHT22;5571;48.110;-1.706;2024-01-25T14:26:20;13.90;99.90
11035;DHT22;5571;48.110;-1.706;2024-01-25T14:28:46;13.90;99.90
11035;DHT22;5571;48.110;-1.706;2024-01-25T14:31:11;13.90;99.90
11035;DHT22;5571;48.110;-1.706;2024-01-25T14:33:37;14.10;99.90
11035;DHT22;5571;48.110;-1.706;2024-01-25T14:36:03;14.50;99.90
11035;DHT22;5571;48.110;-1.706;2024-01-25T14:38:29;14.80;99.90
11035;DHT22;5571;48.110;-1.706;2024-01-25T14:40:55;15.00;99.90
11035;DHT22;5571;48.110;-1.706;2024-01-25T14:43:20;15.20;99.90
11035;DHT22;5571;48.110;-1.706;2024-01-25T14:45:46;15.40;99.90
11035;DHT22;5571;48.110;-1.706;2024-01-25T14:48:11;15.60;99.90
11035;DHT22;5571;48.110;-1.706;2024-01-25T14:50:37;15.60;99.90
11035;DHT22;5571;48.110;-1.706;2024-01-25T14:53:03;15.70;99.90
11035;DHT22;5571;48.110;-1.706;2024-01-25T14:55:28;15.90;99.90
11035;DHT22;5571;48.110;-1.706;2024-01-25T14:57:54;15.90;99.90
11035;DHT22;5571;48.110;-1.706;2024-01-25T15:00:19;15.60;99.90
11035;DHT22;5571;48.110;-1.706;2024-01-25T15:02:46;15.50;99.90
11035;DHT22;5571;48.110;-1.706;2024-01-25T15:05:12;15.30;99.90
11035;DHT22;5571;48.110;-1.706;2024-01-25T15:07:39;15.20;99.90
11035;DHT22;5571;48.110;-1.706;2024-01-25T15:10:05;15.10;99.90
11035;DHT22;5571;48.110;-1.706;2024-01-25T15:12:30;15.10;99.90
11035;DHT22;5571;48.110;-1.706;2024-01-25T15:14:56;15.00;99.90
11035;DHT22;5571;48.110;-1.706;2024-01-25T15:17:21;14.90;99.90
11035;DHT22;5571;48.110;-1.706;2024-01-25T15:19:47;14.80;99.90
11035;DHT22;5571;48.110;-1.706;2024-01-25T15:22:13;14.70;99.90
11035;DHT22;5571;48.110;-1.706;2024-01-25T15:24:38;14.60;99.90
11035;DHT22;5571;48.110;-1.706;2024-01-25T15:27:04;14.60;99.90